Portada
METAR-TAF:

METAR-TAF

Aeroports :

Changsha, Xina

latitud: 28-11N, longitud: 113-13E, altitud: 66 m

Observació

L'informe es va fer fa 1 hora i 6 minuts, a les 02:00 UTC
Vent 4 kt amb direcció variable
Temperatura 27°C
Humitat 42%
Pressió 1022 hPa
Visibilitat 10 km o més
sense núvols per sota de 1500 mi sense presència de cumulonimbus.

METAR: ZGHA 230200Z VRB02MPS CAVOK 27/13 Q1022 NOSIG

Hora: 11:06 (03:06 UTC)

Pronòstic

L'informe es va fer fa 8 hores i 4 minuts, a les 19:02 UTC
Pronòstic vàlid del 23 a les 00 UTC al 23 a les 24 UTC
Vent 8 kt del Nord
Visibilitat: 6000 m

TAF: ZGHA 221902Z 2300/2324 35004MPS 6000 NSC TX31/2306Z TN19/2322Z

Observacions i pronòstics meteorològics de més de 4000 aeroports (METAR i TAF).

Les estacions disponibles són els punts grocs i vermells al mapa.

Posi el ratolí al punt desitjat per veure el nom de l'estació.

Feu clic per veure les observacions i els pronòstics meteorològics.

Per canviar el mapa: feu clic els botons verds amb una creu de color negre per apropar; al botó verd amb un guió per allunyar la imatge; o en les fletxes verdes per a mapes adjacents.


METAR-TAF: